createdAt,value
2023-02-16T00:01:48.046Z,49.01
2023-02-16T00:04:22.969Z,49.11
2023-02-16T00:06:49.897Z,48.96
2023-02-16T00:09:17.238Z,49.44
2023-02-16T00:12:02.577Z,49.20
2023-02-16T00:14:29.798Z,48.87
2023-02-16T00:16:57.482Z,48.80
2023-02-16T00:19:27.589Z,49.46
2023-02-16T00:21:56.128Z,49.49
2023-02-16T00:24:23.582Z,48.89
2023-02-16T00:26:50.677Z,49.11
2023-02-16T00:29:23.376Z,49.10
2023-02-16T00:31:50.543Z,49.14
2023-02-16T00:34:31.249Z,49.06
2023-02-16T00:36:58.873Z,48.91
2023-02-16T00:39:26.229Z,49.14
2023-02-16T00:41:58.011Z,48.90
2023-02-16T00:44:34.138Z,49.25
2023-02-16T00:47:25.807Z,49.25
2023-02-16T00:49:53.718Z,49.02
2023-02-16T00:52:23.660Z,48.97
2023-02-16T00:54:50.718Z,48.99
2023-02-16T00:57:17.959Z,49.37
2023-02-16T00:59:45.466Z,48.93
2023-02-16T01:02:12.187Z,48.99
2023-02-16T01:04:39.524Z,48.79
2023-02-16T01:07:30.526Z,49.43
2023-02-16T01:10:15.990Z,49.21
2023-02-16T01:12:42.799Z,49.60
2023-02-16T01:15:12.725Z,49.30
2023-02-16T01:17:39.469Z,49.39
2023-02-16T01:20:19.356Z,49.52
2023-02-16T01:22:46.147Z,49.41
2023-02-16T01:25:14.292Z,49.61
2023-02-16T01:27:41.200Z,49.74
2023-02-16T01:30:21.683Z,49.76
2023-02-16T01:32:51.892Z,49.46
2023-02-16T01:35:23.637Z,49.68
2023-02-16T01:37:50.452Z,49.58
2023-02-16T01:40:35.278Z,49.79
2023-02-16T01:43:21.892Z,49.74
2023-02-16T01:45:54.645Z,50.01
2023-02-16T01:48:25.129Z,49.50
2023-02-16T01:50:57.704Z,49.41
2023-02-16T01:53:48.937Z,49.26
2023-02-16T01:56:25.419Z,49.71
2023-02-16T01:58:54.662Z,49.57
2023-02-16T02:01:42.017Z,49.29
2023-02-16T02:04:48.818Z,49.31
2023-02-16T02:07:38.634Z,49.71
2023-02-16T02:10:20.220Z,49.49
2023-02-16T02:13:12.331Z,49.48
2023-02-16T02:15:39.085Z,49.75
2023-02-16T02:18:06.213Z,49.33
2023-02-16T02:21:24.058Z,49.75
2023-02-16T02:24:04.864Z,49.36
2023-02-16T02:26:55.897Z,49.59
2023-02-16T02:29:46.741Z,49.71
2023-02-16T02:32:31.862Z,49.81
2023-02-16T02:35:17.528Z,49.94
2023-02-16T02:37:47.226Z,49.96
2023-02-16T02:40:40.931Z,49.90
2023-02-16T02:43:13.935Z,49.62
2023-02-16T02:45:54.448Z,49.57
2023-02-16T02:48:21.224Z,49.71
2023-02-16T02:51:08.797Z,49.70
2023-02-16T02:53:38.192Z,49.54
2023-02-16T02:56:23.887Z,49.48
2023-02-16T02:59:11.174Z,49.70
2023-02-16T03:01:38.481Z,49.80
2023-02-16T03:04:05.563Z,49.67
2023-02-16T03:06:40.875Z,49.37
2023-02-16T03:09:11.524Z,49.57
2023-02-16T03:11:57.068Z,49.62
2023-02-16T03:14:30.901Z,49.74
2023-02-16T03:17:18.330Z,49.90
2023-02-16T03:20:05.384Z,50.07
2023-02-16T03:22:51.055Z,50.10
2023-02-16T03:25:36.449Z,49.93
2023-02-16T03:28:22.779Z,49.98
2023-02-16T03:30:49.681Z,50.05
2023-02-16T03:33:16.785Z,49.95
2023-02-16T03:35:43.697Z,50.43
2023-02-16T03:38:10.738Z,49.95
2023-02-16T03:40:39.570Z,49.72
2023-02-16T03:43:08.114Z,50.08
2023-02-16T03:45:37.117Z,49.99
2023-02-16T03:48:04.260Z,50.28
2023-02-16T03:50:31.273Z,49.86
2023-02-16T03:53:07.598Z,50.20
2023-02-16T03:55:42.343Z,49.92
2023-02-16T03:58:10.963Z,49.87
2023-02-16T04:00:37.805Z,49.95
2023-02-16T04:03:05.693Z,49.73
2023-02-16T04:05:32.624Z,49.99
2023-02-16T04:07:59.687Z,49.84
2023-02-16T04:10:26.549Z,50.38
2023-02-16T04:12:53.701Z,50.60
2023-02-16T04:15:22.267Z,50.18
2023-02-16T04:17:49.596Z,50.04
2023-02-16T04:20:18.831Z,50.11
2023-02-16T04:22:46.038Z,49.87
2023-02-16T04:25:12.883Z,50.30
2023-02-16T04:27:40.024Z,50.50
2023-02-16T04:30:07.491Z,50.05
2023-02-16T04:32:34.569Z,49.99
2023-02-16T04:35:01.326Z,50.18
2023-02-16T04:37:28.373Z,50.40
2023-02-16T04:39:55.230Z,50.13
2023-02-16T04:42:22.352Z,50.54
2023-02-16T04:44:49.090Z,50.24
2023-02-16T04:47:16.173Z,50.51
2023-02-16T04:49:42.989Z,50.05
2023-02-16T04:52:11.961Z,50.68
2023-02-16T04:54:38.788Z,50.46
2023-02-16T04:57:05.830Z,50.31
2023-02-16T04:59:32.619Z,50.23
2023-02-16T05:01:59.781Z,50.20
2023-02-16T05:04:26.683Z,50.49
2023-02-16T05:06:53.830Z,50.33
2023-02-16T05:09:20.773Z,50.41
2023-02-16T05:12:06.529Z,50.41
2023-02-16T05:14:46.993Z,50.42
2023-02-16T05:17:16.575Z,50.46
2023-02-16T05:19:44.618Z,50.23
2023-02-16T05:22:11.895Z,50.31
2023-02-16T05:24:39.152Z,50.58
2023-02-16T05:27:07.722Z,50.56
2023-02-16T05:29:34.707Z,50.75
2023-02-16T05:32:04.377Z,50.62
2023-02-16T05:34:31.586Z,50.53
2023-02-16T05:36:58.631Z,50.61
2023-02-16T05:39:25.899Z,50.35
2023-02-16T05:41:52.974Z,50.65
2023-02-16T05:44:19.769Z,50.44
2023-02-16T05:46:46.868Z,50.72
2023-02-16T05:49:14.408Z,50.54
2023-02-16T05:51:41.738Z,51.03
2023-02-16T05:54:10.680Z,50.79
2023-02-16T05:56:37.785Z,50.85
2023-02-16T05:59:04.521Z,50.85
2023-02-16T06:01:31.578Z,50.62
2023-02-16T06:03:58.397Z,50.40
2023-02-16T06:06:25.470Z,50.94
2023-02-16T06:08:52.514Z,51.18
2023-02-16T06:11:37.881Z,50.67
2023-02-16T06:14:12.735Z,50.91
2023-02-16T06:16:41.051Z,51.29
2023-02-16T06:19:07.849Z,51.54
2023-02-16T06:21:35.390Z,51.51
2023-02-16T06:24:02.233Z,51.47
2023-02-16T06:26:29.343Z,51.95
2023-02-16T06:28:56.165Z,51.65
2023-02-16T06:31:23.820Z,51.37
2023-02-16T06:33:51.015Z,51.91
2023-02-16T06:36:18.250Z,51.55
2023-02-16T06:38:45.515Z,51.51
2023-02-16T06:41:12.723Z,51.57
2023-02-16T06:43:39.529Z,51.10
2023-02-16T06:46:06.740Z,51.31
2023-02-16T06:48:33.649Z,51.32
2023-02-16T06:51:00.710Z,51.33
2023-02-16T06:53:27.531Z,51.39
2023-02-16T06:55:54.666Z,51.40
2023-02-16T06:58:21.536Z,51.37
2023-02-16T07:00:48.684Z,51.48
2023-02-16T07:03:15.561Z,51.67
2023-02-16T07:05:44.180Z,51.52
2023-02-16T07:08:11.135Z,51.40
2023-02-16T07:10:49.288Z,51.76
2023-02-16T07:13:17.040Z,51.57
2023-02-16T07:15:44.140Z,51.93
2023-02-16T07:18:10.875Z,51.51
2023-02-16T07:20:38.039Z,51.87
2023-02-16T07:23:04.952Z,51.71
2023-02-16T07:25:32.094Z,51.77
2023-02-16T07:27:58.909Z,52.00
2023-02-16T07:30:25.990Z,51.75
2023-02-16T07:32:52.792Z,51.85
2023-02-16T07:35:20.151Z,51.96
2023-02-16T07:37:46.991Z,52.03
2023-02-16T07:40:14.022Z,51.73
2023-02-16T07:42:40.799Z,51.67
2023-02-16T07:45:08.294Z,51.88
2023-02-16T07:47:35.092Z,51.89
2023-02-16T07:50:02.207Z,51.89
2023-02-16T07:52:31.238Z,51.92
2023-02-16T07:55:01.182Z,51.99
2023-02-16T07:57:28.200Z,51.89
2023-02-16T07:59:55.650Z,52.27
2023-02-16T08:02:22.742Z,52.42
2023-02-16T08:04:50.017Z,52.57
2023-02-16T08:07:17.376Z,52.15
2023-02-16T08:09:44.622Z,52.02
2023-02-16T08:12:12.465Z,52.14
2023-02-16T08:14:39.901Z,52.06
2023-02-16T08:17:07.676Z,52.21
2023-02-16T08:19:34.987Z,51.88
2023-02-16T08:22:02.552Z,52.01
2023-02-16T08:24:29.669Z,51.88
2023-02-16T08:26:56.704Z,52.23
2023-02-16T08:29:23.796Z,51.98
2023-02-16T08:31:50.728Z,52.12
2023-02-16T08:34:18.791Z,52.19
2023-02-16T08:36:53.251Z,52.19
2023-02-16T08:39:21.037Z,52.17
2023-02-16T08:41:48.497Z,52.17
2023-02-16T08:44:16.081Z,51.97
2023-02-16T08:46:43.844Z,51.90
2023-02-16T08:49:11.936Z,51.87
2023-02-16T08:51:42.696Z,51.96
2023-02-16T08:54:13.595Z,52.03
2023-02-16T08:56:41.623Z,51.94
2023-02-16T08:59:08.768Z,51.83
2023-02-16T09:01:35.987Z,52.16
2023-02-16T09:04:03.131Z,51.85
2023-02-16T09:06:29.866Z,51.85
2023-02-16T09:08:57.276Z,51.99
2023-02-16T09:11:24.532Z,51.69
2023-02-16T09:13:51.746Z,51.66
2023-02-16T09:16:20.613Z,51.47
2023-02-16T09:18:48.171Z,51.61
2023-02-16T09:21:20.988Z,51.41
2023-02-16T09:23:49.344Z,51.40
2023-02-16T09:26:18.081Z,51.10
2023-02-16T09:28:45.791Z,51.44
2023-02-16T09:31:20.309Z,51.11
2023-02-16T09:33:47.485Z,51.19
2023-02-16T09:36:14.293Z,51.13
2023-02-16T09:38:41.443Z,51.03
2023-02-16T09:41:23.446Z,51.00
2023-02-16T09:43:57.973Z,50.95
2023-02-16T09:46:25.381Z,50.98
2023-02-16T09:48:54.773Z,50.68
2023-02-16T09:51:48.196Z,50.63
2023-02-16T09:54:28.324Z,50.56
2023-02-16T09:56:58.180Z,50.70
2023-02-16T09:59:51.541Z,50.38
2023-02-16T10:02:39.909Z,50.54
2023-02-16T10:05:20.368Z,50.53
2023-02-16T10:07:57.598Z,50.21
2023-02-16T10:10:46.242Z,50.42
2023-02-16T10:13:26.235Z,50.13
2023-02-16T10:15:54.164Z,50.03
2023-02-16T10:18:42.193Z,50.25
2023-02-16T10:21:15.362Z,50.13
2023-02-16T10:23:48.609Z,49.96
2023-02-16T10:26:28.597Z,49.81
2023-02-16T10:28:56.869Z,49.95
2023-02-16T10:31:27.021Z,49.94
2023-02-16T10:34:15.611Z,49.74
2023-02-16T10:37:09.608Z,49.83
2023-02-16T10:39:42.726Z,49.82
2023-02-16T10:42:25.100Z,49.52
2023-02-16T10:45:06.095Z,49.67
2023-02-16T10:47:37.401Z,49.58
2023-02-16T10:50:09.887Z,49.46
2023-02-16T10:52:38.133Z,49.46
2023-02-16T10:55:05.779Z,49.58
2023-02-16T10:57:33.192Z,49.37
2023-02-16T11:00:02.309Z,49.40
2023-02-16T11:02:38.207Z,49.41
2023-02-16T11:05:32.330Z,49.03
2023-02-16T11:08:01.716Z,49.31
2023-02-16T11:10:51.922Z,49.01
2023-02-16T11:13:33.961Z,49.10
2023-02-16T11:16:05.581Z,49.08
2023-02-16T11:18:36.388Z,48.95
2023-02-16T11:21:03.911Z,49.05
2023-02-16T11:23:44.317Z,48.67
2023-02-16T11:26:11.805Z,48.80
2023-02-16T11:28:40.914Z,48.49
2023-02-16T11:31:12.421Z,48.63
2023-02-16T11:33:40.316Z,48.63
2023-02-16T11:36:19.787Z,48.41
2023-02-16T11:39:16.524Z,48.43
2023-02-16T11:41:48.584Z,48.23
2023-02-16T11:44:33.186Z,48.59
2023-02-16T11:47:04.414Z,48.16
2023-02-16T11:49:36.980Z,48.10
2023-02-16T11:52:23.189Z,48.19
2023-02-16T11:54:51.900Z,48.27
2023-02-16T11:57:29.764Z,48.32
2023-02-16T11:59:57.305Z,48.05
2023-02-16T12:02:55.011Z,48.11
2023-02-16T12:05:47.333Z,48.11
2023-02-16T12:08:26.275Z,48.18
2023-02-16T12:11:19.491Z,48.13
2023-02-16T12:13:46.289Z,48.14
2023-02-16T12:16:32.104Z,47.88
2023-02-16T12:19:04.637Z,48.03
2023-02-16T12:21:40.839Z,48.16
2023-02-16T12:24:44.827Z,47.95
2023-02-16T12:27:39.193Z,47.99
2023-02-16T12:30:08.076Z,47.80
2023-02-16T12:32:57.788Z,47.87
2023-02-16T12:35:59.151Z,48.01
2023-02-16T12:38:39.692Z,47.89
2023-02-16T12:41:50.964Z,47.87
2023-02-16T12:44:21.179Z,47.58
2023-02-16T12:46:49.814Z,47.77
2023-02-16T12:49:24.597Z,47.75
2023-02-16T12:51:59.238Z,47.65
2023-02-16T12:54:35.660Z,47.53
2023-02-16T12:57:08.316Z,47.65
2023-02-16T12:59:56.634Z,47.61
2023-02-16T13:02:27.769Z,47.63
2023-02-16T13:05:03.227Z,47.48
2023-02-16T13:07:37.378Z,47.18
2023-02-16T13:10:14.733Z,47.36
2023-02-16T13:12:49.846Z,47.40
2023-02-16T13:15:20.693Z,47.59
2023-02-16T13:17:50.034Z,47.50
2023-02-16T13:20:19.815Z,47.28
2023-02-16T13:23:40.430Z,47.63
2023-02-16T13:26:26.385Z,47.29
2023-02-16T13:28:56.316Z,47.41
2023-02-16T13:31:41.843Z,47.67
2023-02-16T13:34:12.034Z,47.13
2023-02-16T13:37:03.452Z,47.37
2023-02-16T13:40:08.120Z,47.25
2023-02-16T13:42:44.288Z,47.22
2023-02-16T13:45:19.825Z,47.35
2023-02-16T13:47:48.276Z,47.47
2023-02-16T13:50:35.667Z,47.33
2023-02-16T13:53:19.936Z,47.55
2023-02-16T13:55:47.004Z,47.25
2023-02-16T13:58:14.124Z,47.42
2023-02-16T14:00:48.567Z,47.25
2023-02-16T14:03:21.894Z,47.27
2023-02-16T14:05:53.021Z,46.99
2023-02-16T14:08:24.795Z,46.88
2023-02-16T14:10:53.926Z,46.91
2023-02-16T14:13:28.670Z,46.87
2023-02-16T14:15:56.750Z,46.76
2023-02-16T14:18:36.180Z,46.30
2023-02-16T14:21:07.748Z,46.75
2023-02-16T14:23:35.094Z,47.02
2023-02-16T14:26:03.724Z,47.08
2023-02-16T14:28:35.423Z,46.33
2023-02-16T14:31:12.705Z,45.89
2023-02-16T14:33:49.044Z,46.25
2023-02-16T14:36:18.383Z,46.31
2023-02-16T14:38:49.511Z,46.25
2023-02-16T14:41:22.547Z,45.96
2023-02-16T14:43:58.692Z,45.65
2023-02-16T14:46:47.220Z,45.79
2023-02-16T14:49:48.304Z,46.60
2023-02-16T14:52:41.183Z,46.35
2023-02-16T14:55:14.371Z,46.52
2023-02-16T14:57:41.232Z,46.50
2023-02-16T15:00:31.958Z,46.00
2023-02-16T15:02:59.947Z,46.09
2023-02-16T15:05:29.712Z,46.32
2023-02-16T15:08:14.049Z,46.58
2023-02-16T15:10:41.106Z,46.26
2023-02-16T15:13:07.959Z,46.52
2023-02-16T15:15:46.007Z,46.01
2023-02-16T15:18:23.609Z,46.08
2023-02-16T15:20:53.003Z,47.13
2023-02-16T15:23:24.496Z,47.34
2023-02-16T15:25:58.731Z,47.17
2023-02-16T15:28:39.220Z,47.14
2023-02-16T15:31:18.153Z,47.42
2023-02-16T15:33:54.951Z,47.22
2023-02-16T15:36:35.435Z,47.10
2023-02-16T15:39:13.285Z,47.04
2023-02-16T15:41:43.298Z,47.28
2023-02-16T15:44:34.457Z,46.95
2023-02-16T15:47:15.962Z,47.46
2023-02-16T15:49:42.779Z,47.36
2023-02-16T15:52:21.590Z,47.19
2023-02-16T15:54:48.552Z,47.47
2023-02-16T15:57:19.853Z,47.26
2023-02-16T15:59:48.726Z,47.30
2023-02-16T16:02:34.924Z,47.31
2023-02-16T16:05:03.234Z,47.28
2023-02-16T16:07:42.864Z,47.35
2023-02-16T16:10:15.525Z,47.68
2023-02-16T16:12:42.873Z,47.20
2023-02-16T16:15:15.716Z,47.55
2023-02-16T16:17:42.829Z,47.50
2023-02-16T16:20:24.891Z,47.62
2023-02-16T16:22:56.740Z,47.71
2023-02-16T16:25:35.932Z,47.63
2023-02-16T16:28:06.949Z,47.57
2023-02-16T16:30:34.883Z,47.73
2023-02-16T16:33:02.796Z,47.59
2023-02-16T16:35:37.985Z,47.62
2023-02-16T16:38:06.118Z,47.48
2023-02-16T16:40:37.292Z,47.35
2023-02-16T16:43:04.568Z,47.60
2023-02-16T16:45:40.953Z,47.16
2023-02-16T16:48:19.400Z,47.25
2023-02-16T16:50:46.610Z,47.31
2023-02-16T16:53:29.126Z,47.54
2023-02-16T16:55:56.987Z,47.62
2023-02-16T16:58:24.038Z,47.51
2023-02-16T17:00:50.798Z,47.57
2023-02-16T17:03:18.044Z,47.69
2023-02-16T17:05:45.243Z,47.68
2023-02-16T17:08:12.406Z,47.51
2023-02-16T17:10:40.339Z,47.62
2023-02-16T17:13:07.690Z,47.81
2023-02-16T17:15:53.981Z,47.77
2023-02-16T17:18:21.598Z,47.99
2023-02-16T17:20:48.610Z,47.84
2023-02-16T17:23:16.606Z,47.85
2023-02-16T17:25:43.525Z,47.84
2023-02-16T17:28:10.727Z,47.65
2023-02-16T17:30:37.768Z,48.03
2023-02-16T17:33:07.063Z,47.86
2023-02-16T17:35:33.919Z,47.91
2023-02-16T17:38:07.332Z,47.56
2023-02-16T17:40:34.275Z,47.82
2023-02-16T17:43:01.477Z,47.70
2023-02-16T17:45:28.292Z,47.67
2023-02-16T17:47:55.383Z,47.76
2023-02-16T17:50:22.265Z,47.55
2023-02-16T17:52:49.363Z,47.73
2023-02-16T17:55:16.261Z,47.71
2023-02-16T17:57:43.366Z,47.89
2023-02-16T18:00:14.263Z,47.81
2023-02-16T18:02:41.375Z,47.71
2023-02-16T18:05:08.294Z,47.83
2023-02-16T18:07:35.582Z,47.75
2023-02-16T18:10:02.532Z,47.88
2023-02-16T18:12:29.625Z,47.59
2023-02-16T18:14:56.746Z,47.69
2023-02-16T18:17:24.118Z,47.79
2023-02-16T18:19:50.909Z,47.91
2023-02-16T18:22:18.036Z,47.79
2023-02-16T18:24:45.155Z,47.69
2023-02-16T18:27:12.301Z,47.63
2023-02-16T18:29:39.088Z,47.79
2023-02-16T18:32:06.320Z,48.02
2023-02-16T18:34:35.049Z,47.89
2023-02-16T18:37:02.226Z,47.65
2023-02-16T18:39:29.326Z,47.78
2023-02-16T18:41:56.442Z,47.78
2023-02-16T18:44:23.216Z,47.85
2023-02-16T18:46:50.421Z,47.95
2023-02-16T18:49:17.184Z,47.88
2023-02-16T18:51:44.255Z,47.86
2023-02-16T18:54:11.043Z,47.94
2023-02-16T18:56:39.184Z,47.86
2023-02-16T18:59:06.248Z,47.83
2023-02-16T19:01:33.804Z,47.97
2023-02-16T19:04:01.386Z,47.99
2023-02-16T19:06:28.860Z,47.92
2023-02-16T19:08:56.418Z,47.81
2023-02-16T19:11:23.586Z,48.08
2023-02-16T19:13:50.442Z,48.27
2023-02-16T19:16:17.798Z,47.99
2023-02-16T19:18:44.705Z,48.02
2023-02-16T19:21:12.601Z,48.13
2023-02-16T19:23:39.504Z,48.06
2023-02-16T19:26:08.013Z,48.13
2023-02-16T19:28:35.265Z,48.08
2023-02-16T19:31:03.542Z,48.02
2023-02-16T19:33:30.643Z,48.29
2023-02-16T19:36:02.591Z,48.06
2023-02-16T19:38:29.943Z,48.02
2023-02-16T19:40:57.130Z,47.93
2023-02-16T19:43:24.561Z,48.22
2023-02-16T19:45:52.912Z,48.24
2023-02-16T19:48:19.699Z,48.22
2023-02-16T19:50:46.766Z,48.34
2023-02-16T19:53:13.554Z,48.48
2023-02-16T19:55:42.057Z,48.25
2023-02-16T19:58:08.837Z,48.27
2023-02-16T20:00:37.703Z,48.37
2023-02-16T20:03:04.734Z,48.37
2023-02-16T20:05:32.436Z,48.50
2023-02-16T20:08:02.181Z,48.25
2023-02-16T20:10:30.317Z,48.09
2023-02-16T20:12:57.077Z,48.43
2023-02-16T20:15:24.163Z,48.22
2023-02-16T20:17:51.043Z,48.35
2023-02-16T20:20:18.572Z,48.51
2023-02-16T20:22:45.380Z,48.09
2023-02-16T20:25:12.493Z,48.25
2023-02-16T20:27:39.323Z,48.58
2023-02-16T20:30:07.122Z,48.35
2023-02-16T20:32:33.970Z,48.25
2023-02-16T20:35:05.181Z,48.59
2023-02-16T20:37:31.997Z,48.53
2023-02-16T20:39:59.132Z,48.36
2023-02-16T20:42:26.089Z,48.57
2023-02-16T20:44:53.256Z,48.34
2023-02-16T20:47:20.111Z,48.24
2023-02-16T20:49:47.246Z,48.54
2023-02-16T20:52:14.522Z,48.19
2023-02-16T20:54:41.715Z,48.30
2023-02-16T20:57:21.290Z,48.54
2023-02-16T20:59:53.064Z,48.38
2023-02-16T21:02:19.868Z,48.61
2023-02-16T21:04:47.227Z,48.40
2023-02-16T21:07:14.055Z,48.48
2023-02-16T21:09:41.403Z,48.45
2023-02-16T21:12:08.253Z,48.61
2023-02-16T21:14:35.340Z,48.45
2023-02-16T21:17:02.163Z,48.66
2023-02-16T21:19:29.241Z,48.58
2023-02-16T21:21:56.025Z,48.52
2023-02-16T21:24:23.245Z,48.52
2023-02-16T21:26:50.014Z,48.82
2023-02-16T21:29:17.195Z,48.72
2023-02-16T21:31:44.201Z,48.66
2023-02-16T21:34:11.373Z,48.90
2023-02-16T21:36:38.924Z,49.07
2023-02-16T21:39:06.113Z,48.79
2023-02-16T21:41:32.890Z,48.59
2023-02-16T21:44:12.131Z,48.63
2023-02-16T21:46:46.582Z,48.71
2023-02-16T21:49:15.542Z,48.90
2023-02-16T21:51:42.956Z,48.85
2023-02-16T21:54:13.763Z,48.86
2023-02-16T21:56:42.749Z,48.76
2023-02-16T21:59:11.836Z,48.74
2023-02-16T22:01:51.021Z,49.01
2023-02-16T22:04:20.134Z,48.82
2023-02-16T22:06:47.669Z,48.79
2023-02-16T22:09:17.620Z,48.94
2023-02-16T22:11:44.899Z,48.89
2023-02-16T22:14:12.080Z,48.79
2023-02-16T22:16:39.224Z,48.90
2023-02-16T22:19:08.346Z,48.86
2023-02-16T22:21:36.872Z,48.82
2023-02-16T22:24:04.254Z,48.83
2023-02-16T22:26:32.300Z,49.18
2023-02-16T22:28:59.346Z,49.09
2023-02-16T22:31:27.001Z,48.95
2023-02-16T22:33:58.405Z,49.22
2023-02-16T22:36:25.372Z,48.97
2023-02-16T22:38:52.960Z,49.03
2023-02-16T22:41:19.908Z,49.03
2023-02-16T22:43:47.046Z,49.13
2023-02-16T22:46:15.995Z,49.07
2023-02-16T22:48:43.510Z,49.05
2023-02-16T22:51:12.175Z,49.02
2023-02-16T22:53:39.437Z,49.34
2023-02-16T22:56:07.625Z,49.12
2023-02-16T22:58:35.021Z,49.35
2023-02-16T23:01:01.810Z,49.10
2023-02-16T23:03:29.251Z,49.54
2023-02-16T23:05:56.028Z,49.14
2023-02-16T23:08:23.132Z,49.38
2023-02-16T23:11:02.047Z,49.36
2023-02-16T23:13:30.346Z,49.45
2023-02-16T23:15:57.337Z,49.25
2023-02-16T23:18:24.756Z,49.24
2023-02-16T23:20:51.584Z,49.43
2023-02-16T23:23:18.786Z,49.34
2023-02-16T23:25:46.541Z,49.27
2023-02-16T23:28:13.737Z,49.59
2023-02-16T23:30:44.721Z,49.23
2023-02-16T23:33:12.199Z,49.29
2023-02-16T23:35:39.652Z,49.23
2023-02-16T23:38:07.677Z,49.36
2023-02-16T23:40:34.515Z,49.29
2023-02-16T23:43:01.612Z,49.66
2023-02-16T23:45:28.430Z,49.45
2023-02-16T23:47:55.496Z,49.41
2023-02-16T23:50:22.360Z,49.18
2023-02-16T23:52:49.460Z,49.60
2023-02-16T23:55:16.233Z,49.25
2023-02-16T23:57:43.303Z,49.40
